Capitol Logistics 462


KEWR
Newark Liberty International Airport
Newark, New Jersey, US
KRFD
Chicago/Rockford International Airport
Rockford, Illinois, US

Activity Log

Date Flight Route Aircraft Duration
06/05/2020 CPX462 COATE Q436 RAAKK Q438 BERYS FNT J94 OBK V100 RFD B738 10h 02m
01/15/2020 CPX462 COATE Q436 RAAKK Q438 BERYS FNT J94 OBK V100 RFD B738 2h 50m
10/28/2019 CPX462 COATE Q436 RAAKK Q438 BERYS FNT J94 OBK V100 RFD B738 2h 16m
07/21/2019 CPX462 KEWR ZIMMZ Q42 MIKYG Q480 AIR APE J30 JOT QUOTE KRFD B738 2h 00m

Route Details

Aircraft Information
Primary: Boeing 737-800BCF
Backup: Not Available
Route Data
Distance: 913nm
Sched. Duration: 1h 54m
Avg. Duration: 4h 17m (+264m)
Times Flown: 4
Recm'd Route: COATE Q436 RAAKK Q438 BERYS FNT J94 OBK V100 RFD
Planned Altitude: 38,000ft
Origin Wx: KEWR 060751Z 26003KT 10SM BKN006 BKN029 OVC120 22/22 A2979 RMK AO2 SLP087 T02220217
Dest. Wx: KRFD 060754Z 33005KT 10SM FEW140 SCT250 19/12 A3000 RMK AO2 SLP155 T01890122 $
Notes:

Financial History
Total Freight: 49,632lbs
Average Load: 12,408lbs/flt
Fuel Used: 52,841lbs
Avg. Fuel Used: 13,210lbs/flt
Fuel Expense: $64,994
Avg. Fuel Expense: $16,249
Avg. Fuel Cost: $1.23/lbs
Total Gross Income: $66,977
Pilot Pay: $626
Total Expenses: $7,441
Total Revenue: $-7,786
Average Revenue: $16,744.20